createdAt,value
2022-08-03T00:00:48.973Z,0.00
2022-08-03T00:01:29.212Z,0.00
2022-08-03T00:02:29.023Z,0.00
2022-08-03T00:03:29.364Z,0.00
2022-08-03T00:04:33.950Z,0.00
2022-08-03T00:05:29.863Z,0.00
2022-08-03T00:06:31.632Z,0.00
2022-08-03T00:07:28.873Z,0.00
2022-08-03T00:08:29.203Z,0.00
2022-08-03T00:09:28.974Z,0.00
2022-08-03T00:10:50.275Z,0.00
2022-08-03T00:11:28.993Z,0.00
2022-08-03T00:12:28.783Z,0.00
2022-08-03T00:13:29.054Z,0.00
2022-08-03T00:14:28.835Z,0.00
2022-08-03T00:15:29.125Z,0.00
2022-08-03T00:16:28.860Z,0.00
2022-08-03T00:17:29.157Z,0.00
2022-08-03T00:18:28.937Z,0.00
2022-08-03T00:19:28.706Z,0.00
2022-08-03T00:20:48.978Z,0.00
2022-08-03T00:21:28.819Z,0.00
2022-08-03T00:22:29.089Z,0.00
2022-08-03T00:23:50.934Z,0.00
2022-08-03T00:24:29.649Z,0.00
2022-08-03T00:25:28.930Z,0.00
2022-08-03T00:26:28.731Z,0.00
2022-08-03T00:27:29.017Z,0.00
2022-08-03T00:28:28.821Z,0.00
2022-08-03T00:29:28.580Z,0.00
2022-08-03T00:30:48.909Z,0.00
2022-08-03T00:31:51.667Z,0.00
2022-08-03T00:32:29.908Z,0.00
2022-08-03T00:33:28.672Z,0.00
2022-08-03T00:34:36.383Z,0.00
2022-08-03T00:35:50.120Z,0.00
2022-08-03T00:36:29.503Z,0.00
2022-08-03T00:37:41.181Z,0.00
2022-08-03T00:38:29.541Z,0.00
2022-08-03T00:39:28.814Z,0.00
2022-08-03T00:40:48.585Z,0.00
2022-08-03T00:41:28.863Z,0.00
2022-08-03T00:42:28.614Z,0.00
2022-08-03T00:43:28.395Z,0.00
2022-08-03T00:44:28.685Z,0.00
2022-08-03T00:45:28.486Z,0.00
2022-08-03T00:46:28.767Z,0.00
2022-08-03T00:47:28.556Z,0.00
2022-08-03T00:48:33.070Z,0.00
2022-08-03T00:49:29.625Z,0.00
2022-08-03T00:50:48.386Z,0.00
2022-08-03T00:51:28.635Z,0.00
2022-08-03T00:52:28.418Z,0.00
2022-08-03T00:53:28.697Z,0.00
2022-08-03T00:54:28.486Z,0.00
2022-08-03T00:55:28.784Z,0.00
2022-08-03T00:56:28.597Z,0.00
2022-08-03T00:57:28.349Z,0.00
2022-08-03T00:58:28.664Z,0.00
2022-08-03T00:59:28.431Z,0.00
2022-08-03T01:00:48.849Z,0.00
2022-08-03T01:01:32.346Z,0.00
2022-08-03T01:02:28.252Z,0.00
2022-08-03T01:03:28.551Z,0.00
2022-08-03T01:04:28.297Z,0.00
2022-08-03T01:05:28.600Z,0.00
2022-08-03T01:06:28.381Z,0.00
2022-08-03T01:07:28.151Z,0.00
2022-08-03T01:08:28.440Z,0.00
2022-08-03T01:09:28.167Z,0.00
2022-08-03T01:10:48.475Z,0.00
2022-08-03T01:11:28.224Z,0.00
2022-08-03T01:12:28.534Z,0.00
2022-08-03T01:14:01.391Z,0.00
2022-08-03T01:14:28.604Z,0.00
2022-08-03T01:15:28.345Z,0.00
2022-08-03T01:16:37.081Z,0.00
2022-08-03T01:17:29.427Z,0.00
2022-08-03T01:18:28.225Z,0.00
2022-08-03T01:19:28.508Z,0.00
2022-08-03T01:20:48.276Z,0.00
2022-08-03T01:21:28.034Z,0.00
2022-08-03T01:22:28.346Z,0.00
2022-08-03T01:23:28.814Z,0.00
2022-08-03T01:24:28.387Z,0.00
2022-08-03T01:25:28.168Z,0.00
2022-08-03T01:26:27.911Z,0.00
2022-08-03T01:27:28.204Z,0.00
2022-08-03T01:28:27.984Z,0.00
2022-08-03T01:29:28.267Z,0.00
2022-08-03T01:30:48.091Z,0.00
2022-08-03T01:31:28.321Z,0.00
2022-08-03T01:32:59.042Z,0.00
2022-08-03T01:33:28.900Z,0.00
2022-08-03T01:34:28.181Z,0.00
2022-08-03T01:35:27.964Z,0.00
2022-08-03T01:36:28.252Z,0.00
2022-08-03T01:37:28.031Z,0.00
2022-08-03T01:38:28.305Z,0.00
2022-08-03T01:39:28.093Z,0.00
2022-08-03T01:40:48.393Z,0.00
2022-08-03T01:41:28.133Z,0.00
2022-08-03T01:42:27.906Z,0.00
2022-08-03T01:44:27.983Z,0.00
2022-08-03T01:44:30.918Z,0.00
2022-08-03T01:45:28.045Z,0.00
2022-08-03T01:46:28.835Z,0.00
2022-08-03T01:47:28.099Z,0.00
2022-08-03T01:48:27.853Z,0.00
2022-08-03T01:49:28.158Z,0.00
2022-08-03T01:50:47.917Z,0.00
2022-08-03T01:52:03.498Z,0.00
2022-08-03T01:52:28.963Z,0.00
2022-08-03T01:53:27.721Z,0.00
2022-08-03T01:54:27.988Z,0.00
2022-08-03T01:55:27.777Z,0.00
2022-08-03T01:56:28.057Z,0.00
2022-08-03T01:57:27.789Z,0.00
2022-08-03T01:58:28.096Z,0.00
2022-08-03T01:59:27.889Z,0.00
2022-08-03T02:00:47.696Z,0.00
2022-08-03T02:01:27.953Z,0.00
2022-08-03T02:02:33.908Z,0.00
2022-08-03T02:03:28.866Z,0.00
2022-08-03T02:04:27.640Z,0.00
2022-08-03T02:05:27.934Z,0.00
2022-08-03T02:07:01.891Z,0.00
2022-08-03T02:07:28.999Z,0.00
2022-08-03T02:08:27.801Z,0.00
2022-08-03T02:09:27.571Z,0.00
2022-08-03T02:10:47.874Z,0.00
2022-08-03T02:11:27.623Z,0.00
2022-08-03T02:12:27.889Z,0.00
2022-08-03T02:13:27.677Z,0.00
2022-08-03T02:14:27.954Z,0.00
2022-08-03T02:15:27.724Z,0.00
2022-08-03T02:16:27.495Z,0.00
2022-08-03T02:17:39.797Z,0.00
2022-08-03T02:18:28.566Z,0.00
2022-08-03T02:19:29.480Z,0.00
2022-08-03T02:20:47.614Z,0.00
2022-08-03T02:21:56.335Z,0.00
2022-08-03T02:22:29.594Z,0.00
2022-08-03T02:23:27.413Z,0.00
2022-08-03T02:24:27.689Z,0.00
2022-08-03T02:25:27.469Z,0.00
2022-08-03T02:26:27.735Z,0.00
2022-08-03T02:27:27.537Z,0.00
2022-08-03T02:28:27.817Z,0.00
2022-08-03T02:29:39.492Z,0.00
2022-08-03T02:30:51.799Z,0.00
2022-08-03T02:31:28.658Z,0.00
2022-08-03T02:32:27.448Z,0.00
2022-08-03T02:33:27.730Z,0.00
2022-08-03T02:34:27.512Z,0.00
2022-08-03T02:35:26.740Z,0.00
2022-08-03T02:36:27.549Z,0.00
2022-08-03T02:37:27.340Z,0.00
2022-08-03T02:38:27.620Z,0.00
2022-08-03T02:39:27.390Z,0.00
2022-08-03T02:40:47.673Z,0.00
2022-08-03T02:41:27.473Z,0.00
2022-08-03T02:42:27.215Z,0.00
2022-08-03T02:43:27.524Z,0.00
2022-08-03T02:44:27.303Z,0.00
2022-08-03T02:45:27.575Z,0.00
2022-08-03T02:46:27.313Z,0.00
2022-08-03T02:47:27.589Z,0.00
2022-08-03T02:48:27.374Z,0.00
2022-08-03T02:49:41.373Z,0.00
2022-08-03T02:50:48.423Z,0.00
2022-08-03T02:51:27.174Z,0.00
2022-08-03T02:52:27.493Z,0.00
2022-08-03T02:53:27.264Z,0.00
2022-08-03T02:54:27.026Z,0.00
2022-08-03T02:55:27.295Z,0.00
2022-08-03T02:56:27.098Z,0.00
2022-08-03T02:57:27.387Z,0.00
2022-08-03T02:58:27.156Z,0.00
2022-08-03T02:59:27.419Z,0.00
2022-08-03T03:00:47.321Z,0.00
2022-08-03T03:01:27.573Z,0.00
2022-08-03T03:02:27.235Z,0.00
2022-08-03T03:03:28.230Z,0.00
2022-08-03T03:04:29.333Z,0.00
2022-08-03T03:05:53.244Z,0.00
2022-08-03T03:06:29.302Z,0.00
2022-08-03T03:07:27.165Z,0.00
2022-08-03T03:08:28.194Z,0.00
2022-08-03T03:09:27.239Z,0.00
2022-08-03T03:10:48.011Z,0.00
2022-08-03T03:11:27.311Z,0.00
2022-08-03T03:12:27.060Z,0.00
2022-08-03T03:13:26.846Z,0.00
2022-08-03T03:14:33.782Z,0.00
2022-08-03T03:15:27.903Z,0.00
2022-08-03T03:16:27.199Z,0.00
2022-08-03T03:17:26.973Z,0.00
2022-08-03T03:18:27.215Z,0.00
2022-08-03T03:19:27.013Z,0.00
2022-08-03T03:20:47.303Z,1.00
2022-08-03T03:21:27.073Z,1.00
2022-08-03T03:22:26.813Z,1.00
2022-08-03T03:23:27.106Z,1.00
2022-08-03T03:24:26.894Z,1.00
2022-08-03T03:25:27.177Z,1.00
2022-08-03T03:26:26.913Z,1.00
2022-08-03T03:27:27.252Z,0.00
2022-08-03T03:28:26.992Z,0.00
2022-08-03T03:29:26.786Z,2.00
2022-08-03T03:30:52.876Z,2.00
2022-08-03T03:31:27.846Z,2.00
2022-08-03T03:32:27.118Z,0.00
2022-08-03T03:33:28.497Z,0.00
2022-08-03T03:34:26.676Z,4.00
2022-08-03T03:35:26.961Z,0.00
2022-08-03T03:36:26.760Z,2.00
2022-08-03T03:37:27.043Z,1.00
2022-08-03T03:38:26.835Z,1.00
2022-08-03T03:39:27.100Z,3.00
2022-08-03T03:40:46.890Z,2.00
2022-08-03T03:41:26.639Z,9.00
2022-08-03T03:42:26.920Z,5.00
2022-08-03T03:43:26.657Z,3.00
2022-08-03T03:44:26.931Z,4.00
2022-08-03T03:45:26.732Z,8.00
2022-08-03T03:46:27.022Z,9.00
2022-08-03T03:47:32.834Z,8.00
2022-08-03T03:48:27.602Z,9.00
2022-08-03T03:49:27.004Z,9.00
2022-08-03T03:50:46.658Z,11.00
2022-08-03T03:51:26.911Z,15.00
2022-08-03T03:52:26.732Z,24.00
2022-08-03T03:53:26.504Z,23.00
2022-08-03T03:54:29.243Z,27.00
2022-08-03T03:55:26.573Z,26.00
2022-08-03T03:56:26.849Z,28.00
2022-08-03T03:57:26.594Z,31.00
2022-08-03T03:58:26.829Z,36.00
2022-08-03T03:59:26.630Z,46.00
2022-08-03T04:00:46.918Z,58.00
2022-08-03T04:01:26.634Z,62.00
2022-08-03T04:02:26.866Z,71.00
2022-08-03T04:03:26.673Z,85.00
2022-08-03T04:04:26.428Z,94.00
2022-08-03T04:05:26.717Z,95.00
2022-08-03T04:06:26.524Z,91.00
2022-08-03T04:07:26.803Z,109.00
2022-08-03T04:08:26.577Z,116.00
2022-08-03T04:09:26.323Z,134.00
2022-08-03T04:10:46.607Z,144.00
2022-08-03T04:11:29.037Z,149.00
2022-08-03T04:12:26.639Z,154.00
2022-08-03T04:13:26.439Z,170.00
2022-08-03T04:14:26.702Z,186.00
2022-08-03T04:15:26.479Z,192.00
2022-08-03T04:16:26.252Z,210.00
2022-08-03T04:17:26.575Z,218.00
2022-08-03T04:18:26.351Z,240.00
2022-08-03T04:19:26.605Z,248.00
2022-08-03T04:20:46.381Z,264.00
2022-08-03T04:21:26.612Z,274.00
2022-08-03T04:22:26.382Z,280.00
2022-08-03T04:23:26.182Z,282.00
2022-08-03T04:24:26.661Z,303.00
2022-08-03T04:25:26.234Z,309.00
2022-08-03T04:26:26.525Z,330.00
2022-08-03T04:27:26.326Z,340.00
2022-08-03T04:28:30.386Z,349.00
2022-08-03T04:29:27.414Z,367.00
2022-08-03T04:30:46.199Z,388.00
2022-08-03T04:31:26.454Z,393.00
2022-08-03T04:32:26.735Z,410.00
2022-08-03T04:33:29.360Z,415.00
2022-08-03T04:34:26.375Z,435.00
2022-08-03T04:35:26.175Z,447.00
2022-08-03T04:36:27.499Z,471.00
2022-08-03T04:37:28.289Z,479.00
2022-08-03T04:38:26.150Z,479.00
2022-08-03T04:39:26.379Z,497.00
2022-08-03T04:40:46.218Z,522.00
2022-08-03T04:41:26.447Z,529.00
2022-08-03T04:42:26.207Z,550.00
2022-08-03T04:43:25.998Z,551.00
2022-08-03T04:44:28.336Z,560.00
2022-08-03T04:45:26.174Z,583.00
2022-08-03T04:46:26.353Z,605.00
2022-08-03T04:47:26.150Z,582.00
2022-08-03T04:48:25.954Z,598.00
2022-08-03T04:49:26.403Z,625.00
2022-08-03T04:50:46.066Z,623.00
2022-08-03T04:51:26.349Z,656.00
2022-08-03T04:52:26.126Z,701.00
2022-08-03T04:53:25.902Z,741.00
2022-08-03T04:54:26.171Z,743.00
2022-08-03T04:55:25.955Z,754.00
2022-08-03T04:56:26.260Z,753.00
2022-08-03T04:57:26.021Z,743.00
2022-08-03T04:58:25.830Z,752.00
2022-08-03T04:59:26.115Z,772.00
2022-08-03T05:00:45.920Z,808.00
2022-08-03T05:01:26.358Z,804.00
2022-08-03T05:02:25.992Z,821.00
2022-08-03T05:03:25.776Z,813.00
2022-08-03T05:04:26.025Z,820.00
2022-08-03T05:05:25.796Z,854.00
2022-08-03T05:06:27.075Z,877.00
2022-08-03T05:07:25.868Z,892.00
2022-08-03T05:08:28.231Z,893.00
2022-08-03T05:09:49.661Z,881.00
2022-08-03T05:10:47.187Z,934.00
2022-08-03T05:11:25.967Z,957.00
2022-08-03T05:12:28.332Z,991.00
2022-08-03T05:13:26.985Z,990.00
2022-08-03T05:14:28.301Z,1005.00
2022-08-03T05:15:26.029Z,991.00
2022-08-03T05:16:25.819Z,962.00
2022-08-03T05:17:25.601Z,946.00
2022-08-03T05:18:25.860Z,947.00
2022-08-03T05:19:25.621Z,930.00
2022-08-03T05:20:45.949Z,946.00
2022-08-03T05:21:25.700Z,951.00
2022-08-03T05:22:26.982Z,925.00
2022-08-03T05:23:25.720Z,920.00
2022-08-03T05:24:26.012Z,922.00
2022-08-03T05:25:27.553Z,923.00
2022-08-03T05:26:25.592Z,942.00
2022-08-03T05:27:25.862Z,870.00
2022-08-03T05:28:25.646Z,860.00
2022-08-03T05:29:25.924Z,926.00
2022-08-03T05:30:45.733Z,866.00
2022-08-03T05:31:25.515Z,886.00
2022-08-03T05:32:25.793Z,872.00
2022-08-03T05:33:25.546Z,836.00
2022-08-03T05:34:25.785Z,827.00
2022-08-03T05:35:56.156Z,792.00
2022-08-03T05:36:26.854Z,786.00
2022-08-03T05:37:25.660Z,741.00
2022-08-03T05:38:28.637Z,733.00
2022-08-03T05:39:26.637Z,719.00
2022-08-03T05:40:56.638Z,780.00
2022-08-03T05:41:36.912Z,626.00
2022-08-03T05:42:26.357Z,644.00
2022-08-03T05:43:24.782Z,663.00
2022-08-03T05:44:24.764Z,679.00
2022-08-03T05:45:28.261Z,689.00
2022-08-03T05:46:25.505Z,692.00
2022-08-03T05:47:25.255Z,690.00
2022-08-03T05:48:26.486Z,677.00
2022-08-03T05:49:25.311Z,828.00
2022-08-03T05:50:45.556Z,742.00
2022-08-03T05:51:25.275Z,763.00
2022-08-03T05:52:25.595Z,791.00
2022-08-03T05:53:25.270Z,812.00
2022-08-03T05:54:25.509Z,818.00
2022-08-03T05:55:25.670Z,858.00
2022-08-03T05:56:25.397Z,872.00
2022-08-03T05:57:25.151Z,877.00
2022-08-03T05:58:25.408Z,864.00
2022-08-03T05:59:38.152Z,841.00
2022-08-03T06:00:46.401Z,834.00
2022-08-03T06:01:25.201Z,837.00
2022-08-03T06:02:25.378Z,845.00
2022-08-03T06:03:25.131Z,864.00
2022-08-03T06:04:25.397Z,903.00
2022-08-03T06:05:25.152Z,938.00
2022-08-03T06:06:28.245Z,971.00
2022-08-03T06:07:26.129Z,1009.00
2022-08-03T06:08:25.380Z,1066.00
2022-08-03T06:09:25.148Z,1140.00
2022-08-03T06:10:47.523Z,1244.00
2022-08-03T06:11:25.336Z,1288.00
2022-08-03T06:12:25.111Z,1344.00
2022-08-03T06:13:25.348Z,1387.00
2022-08-03T06:14:25.091Z,1421.00
2022-08-03T06:15:25.354Z,1449.00
2022-08-03T06:16:25.111Z,1477.00
2022-08-03T06:17:25.340Z,1502.00
2022-08-03T06:18:25.096Z,1531.00
2022-08-03T06:19:25.334Z,1565.00
2022-08-03T06:20:49.242Z,1611.00
2022-08-03T06:21:25.346Z,1636.00
2022-08-03T06:22:25.118Z,1668.00
2022-08-03T06:23:53.116Z,1703.00
2022-08-03T06:24:26.768Z,1743.00
2022-08-03T06:25:25.327Z,1797.00
2022-08-03T06:26:25.086Z,1841.00
2022-08-03T06:27:36.416Z,1869.00
2022-08-03T06:29:28.283Z,1946.00
2022-08-03T06:30:47.070Z,1982.00
2022-08-03T06:31:24.859Z,1998.00
2022-08-03T06:32:25.118Z,2020.00
2022-08-03T06:33:24.848Z,2035.00
2022-08-03T06:34:33.975Z,2057.00
2022-08-03T06:35:26.012Z,2081.00
2022-08-03T06:36:24.784Z,2102.00
2022-08-03T06:37:25.091Z,2121.00
2022-08-03T06:38:24.823Z,2142.00
2022-08-03T06:39:25.054Z,2156.00
2022-08-03T06:40:44.813Z,2194.00
2022-08-03T06:41:25.039Z,2207.00
2022-08-03T06:42:24.792Z,2226.00
2022-08-03T06:43:25.031Z,2246.00
2022-08-03T06:44:24.783Z,2266.00
2022-08-03T06:45:25.051Z,2284.00
2022-08-03T06:46:24.798Z,2308.00
2022-08-03T06:47:30.334Z,2325.00
2022-08-03T06:48:25.087Z,2344.00
2022-08-03T06:49:24.893Z,2366.00
2022-08-03T06:50:45.091Z,2396.00
2022-08-03T06:52:37.097Z,2411.00
2022-08-03T06:52:37.526Z,2437.00
2022-08-03T06:53:25.857Z,2468.00
2022-08-03T06:54:24.595Z,2494.00
2022-08-03T06:55:24.846Z,2521.00
2022-08-03T06:56:24.586Z,2545.00
2022-08-03T06:57:24.841Z,2555.00
2022-08-03T06:58:24.571Z,2570.00
2022-08-03T07:00:10.306Z,2548.00
2022-08-03T07:00:45.979Z,2522.00
2022-08-03T07:01:24.807Z,2601.00
2022-08-03T07:02:24.495Z,2624.00
2022-08-03T07:03:25.214Z,2653.00
2022-08-03T07:04:24.942Z,2667.00
2022-08-03T07:05:24.689Z,2669.00
2022-08-03T07:06:24.419Z,2590.00
2022-08-03T07:07:24.671Z,2456.00
2022-08-03T07:08:33.567Z,2579.00
2022-08-03T07:09:25.654Z,2348.00
2022-08-03T07:10:44.931Z,2540.00
2022-08-03T07:11:24.626Z,2647.00
2022-08-03T07:12:26.437Z,2630.00
2022-08-03T07:13:26.727Z,2637.00
2022-08-03T07:14:26.508Z,2650.00
2022-08-03T07:15:53.778Z,2664.00
2022-08-03T07:16:27.699Z,2661.00
2022-08-03T07:17:26.560Z,2650.00
2022-08-03T07:18:29.695Z,2633.00
2022-08-03T07:19:26.623Z,2612.00
2022-08-03T07:20:44.440Z,2583.00
2022-08-03T07:21:26.657Z,2632.00
2022-08-03T07:22:26.441Z,2678.00
2022-08-03T07:23:25.509Z,2684.00
2022-08-03T07:24:26.672Z,2696.00
2022-08-03T07:25:26.414Z,2708.00
2022-08-03T07:26:25.709Z,2720.00
2022-08-03T07:27:26.558Z,2733.00
2022-08-03T07:28:26.338Z,2745.00
2022-08-03T07:29:26.632Z,2748.00
2022-08-03T07:30:44.431Z,2758.00
2022-08-03T07:31:25.322Z,2770.00
2022-08-03T07:32:26.454Z,2779.00
2022-08-03T07:33:26.267Z,2779.00
2022-08-03T07:34:26.610Z,2802.00
2022-08-03T07:35:26.407Z,2776.00
2022-08-03T07:36:26.189Z,2768.00
2022-08-03T07:37:25.321Z,2765.00
2022-08-03T07:38:26.334Z,2697.00
2022-08-03T07:39:26.121Z,2716.00
2022-08-03T07:40:46.311Z,2750.00
2022-08-03T07:41:26.217Z,2790.00
2022-08-03T07:42:26.504Z,2825.00
2022-08-03T07:43:25.336Z,2856.00
2022-08-03T07:44:24.837Z,2898.00
2022-08-03T07:45:25.526Z,2937.00
2022-08-03T07:46:26.833Z,2940.00
2022-08-03T07:47:26.087Z,2985.00
2022-08-03T07:48:26.445Z,2961.00
2022-08-03T07:49:26.275Z,2986.00
2022-08-03T07:50:44.056Z,3016.00
2022-08-03T07:51:26.235Z,3045.00
2022-08-03T07:52:28.313Z,3090.00
2022-08-03T07:53:26.357Z,3110.00
2022-08-03T07:54:25.150Z,3164.00
2022-08-03T07:55:24.670Z,3210.00
2022-08-03T07:56:26.278Z,3253.00
2022-08-03T07:57:26.075Z,3296.00
2022-08-03T07:58:26.351Z,3319.00
2022-08-03T07:59:25.221Z,3312.00
2022-08-03T08:00:44.031Z,3280.00
2022-08-03T08:01:26.289Z,3251.00
2022-08-03T08:02:26.015Z,3198.00
2022-08-03T08:03:26.304Z,3201.00
2022-08-03T08:04:26.132Z,3261.00
2022-08-03T08:05:24.911Z,3362.00
2022-08-03T08:06:26.223Z,3480.00
2022-08-03T08:07:25.975Z,3528.00
2022-08-03T08:08:26.257Z,3529.00
2022-08-03T08:09:24.782Z,3521.00
2022-08-03T08:10:57.904Z,3517.00
2022-08-03T08:11:27.144Z,3501.00
2022-08-03T08:12:26.008Z,3532.00
2022-08-03T08:13:25.798Z,3568.00
2022-08-03T08:14:26.123Z,3491.00
2022-08-03T08:15:25.460Z,3524.00
2022-08-03T08:16:24.846Z,3679.00
2022-08-03T08:17:26.091Z,3788.00
2022-08-03T08:18:25.898Z,3824.00
2022-08-03T08:19:25.685Z,3836.00
2022-08-03T08:20:44.007Z,3763.00
2022-08-03T08:21:24.714Z,3790.00
2022-08-03T08:22:30.570Z,3796.00
2022-08-03T08:23:42.307Z,3872.00
2022-08-03T08:24:25.820Z,3995.00
2022-08-03T08:25:25.939Z,4080.00
2022-08-03T08:26:25.714Z,4105.00
2022-08-03T08:27:25.062Z,4147.00
2022-08-03T08:28:30.220Z,3954.00
2022-08-03T08:29:26.672Z,3834.00
2022-08-03T08:30:43.983Z,4049.00
2022-08-03T08:31:25.675Z,4183.00
2022-08-03T08:32:25.000Z,4228.00
2022-08-03T08:33:29.994Z,4251.00
2022-08-03T08:34:25.704Z,4284.00
2022-08-03T08:35:24.707Z,4292.00
2022-08-03T08:36:25.813Z,4312.00
2022-08-03T08:37:25.605Z,4336.00
2022-08-03T08:38:25.878Z,4394.00
2022-08-03T08:39:25.716Z,4408.00
2022-08-03T08:40:44.018Z,4482.00
2022-08-03T08:41:25.719Z,4510.00
2022-08-03T08:42:26.072Z,4540.00
2022-08-03T08:43:25.927Z,4577.00
2022-08-03T08:44:25.685Z,4629.00
2022-08-03T08:45:25.472Z,4650.00
2022-08-03T08:46:24.810Z,4709.00
2022-08-03T08:47:26.091Z,4763.00
2022-08-03T08:48:24.984Z,4810.00
2022-08-03T08:49:24.554Z,4863.00
2022-08-03T08:50:43.590Z,4945.00
2022-08-03T08:51:24.858Z,4981.00
2022-08-03T08:52:31.842Z,5048.00
2022-08-03T08:53:27.657Z,5100.00
2022-08-03T08:54:25.697Z,5201.00
2022-08-03T08:55:25.529Z,5282.00
2022-08-03T08:56:25.301Z,5337.00
2022-08-03T08:57:41.835Z,5394.00
2022-08-03T08:58:26.441Z,5462.00
2022-08-03T08:59:25.728Z,5526.00
2022-08-03T09:00:43.589Z,5625.00
2022-08-03T09:01:25.285Z,5658.00
2022-08-03T09:02:25.082Z,5714.00
2022-08-03T09:03:30.146Z,5773.00
2022-08-03T09:04:26.284Z,5879.00
2022-08-03T09:05:41.570Z,5947.00
2022-08-03T09:06:26.376Z,6031.00
2022-08-03T09:07:25.698Z,6111.00
2022-08-03T09:08:24.498Z,6183.00
2022-08-03T09:10:04.799Z,6271.00
2022-08-03T09:10:44.583Z,6395.00
2022-08-03T09:11:51.772Z,6472.00
2022-08-03T09:12:42.715Z,6617.00
2022-08-03T09:13:25.422Z,6765.00
2022-08-03T09:14:35.305Z,6912.00
2022-08-03T09:15:25.263Z,7113.00
2022-08-03T09:16:25.314Z,7301.00
2022-08-03T09:17:25.625Z,7473.00
2022-08-03T09:18:25.437Z,7650.00
2022-08-03T09:19:24.881Z,7871.00
2022-08-03T09:20:43.153Z,8147.00
2022-08-03T09:21:33.922Z,8282.00
2022-08-03T09:22:26.139Z,8528.00
2022-08-03T09:23:51.733Z,8765.00
2022-08-03T09:24:40.588Z,9177.00
2022-08-03T09:25:26.029Z,10784.00
2022-08-03T09:26:25.308Z,12816.00
2022-08-03T09:27:26.170Z,17998.00
2022-08-03T09:28:57.962Z,22555.00
2022-08-03T09:29:26.244Z,28120.00
2022-08-03T09:30:42.598Z,29472.00
2022-08-03T09:31:25.304Z,34043.00
2022-08-03T09:32:24.563Z,37315.00
2022-08-03T09:33:25.398Z,36734.00
2022-08-03T09:34:26.168Z,32336.00
2022-08-03T09:35:33.102Z,34637.00
2022-08-03T09:36:24.895Z,32500.00
2022-08-03T09:38:11.133Z,31234.00
2022-08-03T09:38:25.433Z,33097.00
2022-08-03T09:39:41.231Z,32816.00
2022-08-03T09:40:44.016Z,36618.00
2022-08-03T09:41:23.957Z,36888.00
2022-08-03T09:42:24.283Z,36502.00
2022-08-03T09:43:25.318Z,33460.00
2022-08-03T09:44:26.203Z,33682.00
2022-08-03T09:45:24.909Z,37505.00
2022-08-03T09:46:25.163Z,38931.00
2022-08-03T09:47:28.172Z,37264.00
2022-08-03T09:48:24.305Z,36150.00
2022-08-03T09:49:25.398Z,36552.00
2022-08-03T09:50:42.901Z,36572.00
2022-08-03T09:51:32.815Z,37825.00
2022-08-03T09:52:38.614Z,41584.00
2022-08-03T09:53:25.293Z,42527.00
2022-08-03T09:54:25.050Z,41332.00
2022-08-03T09:56:33.926Z,38558.00
2022-08-03T09:56:36.318Z,37573.00
2022-08-03T09:57:26.056Z,36255.00
2022-08-03T09:58:24.826Z,41064.00
2022-08-03T09:59:24.118Z,37477.00
2022-08-03T10:00:42.969Z,38516.00
2022-08-03T10:01:25.567Z,43461.00
2022-08-03T10:02:24.886Z,45318.00
2022-08-03T10:03:25.214Z,40569.00
2022-08-03T10:04:23.955Z,42356.00
2022-08-03T10:05:23.716Z,44051.00
2022-08-03T10:06:26.488Z,50321.00
2022-08-03T10:07:23.880Z,44508.00
2022-08-03T10:08:24.654Z,38803.00
2022-08-03T10:09:24.953Z,47028.00
2022-08-03T10:10:42.751Z,50535.00
2022-08-03T10:11:24.953Z,42664.00
2022-08-03T10:12:23.720Z,44281.00
2022-08-03T10:13:25.040Z,46499.00
2022-08-03T10:14:24.808Z,50432.00
2022-08-03T10:16:22.594Z,50307.00
2022-08-03T10:16:25.951Z,52658.00
2022-08-03T10:17:23.900Z,51059.00
2022-08-03T10:18:24.676Z,52819.00
2022-08-03T10:19:24.984Z,48341.00
2022-08-03T10:20:42.834Z,45458.00
2022-08-03T10:21:24.529Z,49530.00
2022-08-03T10:22:22.992Z,51682.00
2022-08-03T10:23:24.696Z,48803.00
2022-08-03T10:24:24.454Z,51631.00
2022-08-03T10:25:24.753Z,52731.00
2022-08-03T10:26:25.543Z,52988.00
2022-08-03T10:27:23.786Z,52405.00
2022-08-03T10:28:24.127Z,53195.00
2022-08-03T10:29:24.877Z,49642.00
2022-08-03T10:30:42.701Z,50680.00
2022-08-03T10:31:24.459Z,48491.00
2022-08-03T10:32:23.748Z,45197.00
2022-08-03T10:33:51.220Z,44334.00
2022-08-03T10:34:24.811Z,47794.00
2022-08-03T10:35:24.687Z,48723.00
2022-08-03T10:36:24.387Z,52715.00
2022-08-03T10:37:23.744Z,47899.00
2022-08-03T10:38:24.559Z,48744.00
2022-08-03T10:39:24.307Z,52355.00
2022-08-03T10:40:52.548Z,55808.00
2022-08-03T10:41:25.369Z,52902.00
2022-08-03T10:42:24.656Z,51124.00
2022-08-03T10:43:24.411Z,53373.00
2022-08-03T10:44:24.731Z,50824.00
2022-08-03T10:45:24.481Z,46982.00
2022-08-03T10:46:23.770Z,49885.00
2022-08-03T10:47:24.590Z,53723.00
2022-08-03T10:48:24.351Z,51231.00
2022-08-03T10:49:34.544Z,51264.00
2022-08-03T10:50:43.436Z,47818.00
2022-08-03T10:51:24.711Z,46995.00
2022-08-03T10:52:32.807Z,50614.00
2022-08-03T10:53:23.486Z,50668.00
2022-08-03T10:54:24.165Z,49671.00
2022-08-03T10:55:24.448Z,51496.00
2022-08-03T10:56:41.518Z,50731.00
2022-08-03T10:57:24.637Z,52915.00
2022-08-03T10:58:30.678Z,52571.00
2022-08-03T10:59:27.834Z,51403.00
2022-08-03T11:00:42.470Z,47788.00
2022-08-03T11:01:24.669Z,40019.00
2022-08-03T11:02:25.445Z,47494.00
2022-08-03T11:03:23.214Z,49912.00
2022-08-03T11:04:24.475Z,50571.00
2022-08-03T11:05:24.232Z,55318.00
2022-08-03T11:06:24.555Z,60886.00
2022-08-03T11:07:23.594Z,52016.00
2022-08-03T11:08:22.956Z,48437.00
2022-08-03T11:09:24.460Z,56764.00
2022-08-03T11:10:42.293Z,57779.00
2022-08-03T11:11:23.223Z,56323.00
2022-08-03T11:12:29.878Z,54192.00
2022-08-03T11:13:24.067Z,50529.00
2022-08-03T11:14:23.341Z,54929.00
2022-08-03T11:15:24.136Z,58487.00
2022-08-03T11:16:24.431Z,57328.00
2022-08-03T11:17:24.258Z,53416.00
2022-08-03T11:18:25.390Z,52150.00
2022-08-03T11:19:23.309Z,49320.00
2022-08-03T11:20:42.127Z,53397.00
2022-08-03T11:21:28.817Z,56528.00
2022-08-03T11:22:25.157Z,42166.00
2022-08-03T11:24:04.210Z,5308.00
2022-08-03T11:24:25.344Z,12847.00
2022-08-03T11:25:54.603Z,3901.00
2022-08-03T11:26:24.369Z,3844.00
2022-08-03T11:27:23.408Z,4475.00
2022-08-03T11:28:23.929Z,5262.00
2022-08-03T11:29:24.197Z,4999.00
2022-08-03T11:30:42.019Z,4462.00
2022-08-03T11:31:48.766Z,4256.00
2022-08-03T11:32:23.101Z,3734.00
2022-08-03T11:33:22.315Z,5127.00
2022-08-03T11:34:22.070Z,4086.00
2022-08-03T11:35:22.314Z,4837.00
2022-08-03T11:36:31.967Z,5123.00
2022-08-03T11:37:24.575Z,5074.00
2022-08-03T11:38:22.054Z,5107.00
2022-08-03T11:39:22.306Z,5131.00
2022-08-03T11:40:42.081Z,5175.00
2022-08-03T11:41:22.307Z,5311.00
2022-08-03T11:42:22.057Z,5559.00
2022-08-03T11:43:21.816Z,6177.00
2022-08-03T11:44:22.049Z,6485.00
2022-08-03T11:45:21.781Z,13001.00
2022-08-03T11:46:28.213Z,10939.00
2022-08-03T11:47:22.948Z,7693.00
2022-08-03T11:48:22.017Z,6187.00
2022-08-03T11:49:22.669Z,6145.00
2022-08-03T11:50:42.038Z,5381.00
2022-08-03T11:51:21.765Z,5165.00
2022-08-03T11:52:26.724Z,4843.00
2022-08-03T11:53:22.766Z,4584.00
2022-08-03T11:54:21.996Z,4299.00
2022-08-03T11:55:21.984Z,4012.00
2022-08-03T11:56:21.974Z,3781.00
2022-08-03T11:57:21.706Z,3645.00
2022-08-03T11:59:02.705Z,3568.00
2022-08-03T11:59:22.720Z,3508.00
2022-08-03T12:00:41.918Z,3490.00
2022-08-03T12:01:23.247Z,3490.00
2022-08-03T12:02:21.911Z,3463.00
2022-08-03T12:03:21.662Z,3474.00
2022-08-03T12:04:21.954Z,3545.00
2022-08-03T12:05:21.635Z,3544.00
2022-08-03T12:06:21.890Z,3528.00
2022-08-03T12:07:25.041Z,3637.00
2022-08-03T12:08:22.114Z,3720.00
2022-08-03T12:09:21.860Z,3764.00
2022-08-03T12:10:41.618Z,3702.00
2022-08-03T12:11:21.851Z,3642.00
2022-08-03T12:12:21.601Z,3674.00
2022-08-03T12:14:35.718Z,3778.00
2022-08-03T12:14:50.423Z,4127.00
2022-08-03T12:15:22.798Z,4455.00
2022-08-03T12:16:21.534Z,4612.00
2022-08-03T12:17:22.068Z,4592.00
2022-08-03T12:18:21.538Z,4817.00
2022-08-03T12:19:21.824Z,4568.00
2022-08-03T12:20:41.583Z,4183.00
2022-08-03T12:21:21.807Z,4157.00
2022-08-03T12:22:21.537Z,4125.00
2022-08-03T12:23:21.786Z,4615.00
2022-08-03T12:24:21.547Z,4615.00
2022-08-03T12:25:38.590Z,4446.00
2022-08-03T12:26:22.528Z,4287.00
2022-08-03T12:27:21.780Z,4275.00
2022-08-03T12:28:36.433Z,4472.00